FKKD

Douala International Airport

Airport
ICAO code
FKKD
IATA Code
DLA
Summary
ICAO Region
AFI
ICAO Territory
Location

Douala,

Serving
Douala
Elevation
33 ft
Coordinates
4° 1' 1" N , 9° 43' 8" E
KCC
Metar
Observation
FKKD 281100Z VRB02KT 8000 BKN016 FEW020CB 29/25 Q1008 NOSIG
Station
Douala Obs.
Date/Time
2022-11-28 11:00:00
Wind speed
02 kts
Lowest cloud amount
broken clouds
Temperature
29°C
Dew point
25°C
Humidity
79%
QNH
1008 hPa
Weather condition
n/a

Description

International airport serving Douala, Cameroon.

Climatology

Tropical Monsoon climate (Köppen climate classification Am) - monthly mean temperatures above 18°C in every month of the year and features wet and dry seasons. A tropical monsoon climate typically features less pronounced dry seasons than a tropical savanna climate and sees less variance in temperatures during the course of the year. The driest month nearly always occurs at or soon after the "winter" solstice.

Runways

Designator Length Width Surface Rops
12/30 2850 45 ASP Yes/Yes

Airport map

Aerial View

SKYbrary Partners:

Safety knowledge contributed by: